Piffard, New York
Current Conditions -  °F | °C
As of 3:54 AM on Friday 24 Oct 2014 (Local Time) from KDSV Reporting Station
Overcast Overcast  
Wind Chill: 50°   Ceiling: 3700
Heat Index: 50°   Visibility: 10mi
Dew Point: 42°   Wind: 9mph
Humidity: 74%   Direction: 340°NNW
Pressure: 29.99"   Gusts: NA
Location:  42.83°N, 77.85°W
Report Text: KDSV 240754Z AUTO 34008KT 10SM OVC037 10/06 A2999 RMK AO2 SLP165 T01000056
Loading
Personal Weather Stations






























Interactive Weather Map
Tropical Storm Tracking
New forecast layout! Learn more

10-Day Weather Forecast

Advertisements
Track Severe Weather on mobile